»·PEaware :: N52326 KVNY-KONT

N52326 :: KVNY-KONT

FLIGHT INFORMATION

Flight Status: Arrived
Operator: Privately registered:
United States
More flights under this callsign
Pilot: Steven M. (10820)
Aircraft: PIPER PA-28 CHEROKEE ARCHER
(PA28)
More flights by this aircraft type
Origin: KVNY Van Nuys
United States
Destination: KONT Ontario Intl
United States
More flights between these airports :: More routes between these airports
Route: +V186 PDZ
File this flight plan on PilotEdge
Remarks:
Altitude:
(Current/Filed)
5ft
Speed:
(Current/Filed)
100kts
Departed: 29-Mar-20 11:08 AM
Arrived: 29-Mar-20 12:29 PM
Distance/Time
Traveled:
45nm/1:21
Distance/Time
To Go:
Arrived

Flight Plot

Page will automatically refresh every two minutes.

Flight plan parsing failed; only flown route is shown


Map Options




Map Legend


Flown Route
Filed Route
Departure Airport
Arrival Airport
Navaid (VOR, NDB)
Fix

Horizontal Profiles

Position Reports

Time Latitude Longitude Heading Altitude Ground
Speed
29-Mar-20 10:45 34.218749 -118.495940 3 807ft 0kts
29-Mar-20 10:46 34.218749 -118.495940 3 807ft 0kts
29-Mar-20 10:47 34.218749 -118.495940 3 807ft 0kts
29-Mar-20 10:48 34.218749 -118.495940 3 807ft 0kts
29-Mar-20 10:49 34.218749 -118.495940 3 807ft 0kts
29-Mar-20 10:50 34.218749 -118.495940 3 807ft 0kts
29-Mar-20 10:51 34.218749 -118.495940 3 807ft 0kts
29-Mar-20 10:52 34.218749 -118.495940 3 807ft 0kts
29-Mar-20 10:53 34.218749 -118.495940 3 807ft 0kts
29-Mar-20 10:54 34.218749 -118.495940 3 807ft 0kts
29-Mar-20 10:55 34.218749 -118.495940 3 807ft 0kts
29-Mar-20 10:56 34.218749 -118.495940 3 807ft 0kts
29-Mar-20 10:57 34.218749 -118.495940 3 807ft 0kts
29-Mar-20 10:58 34.218749 -118.495940 3 807ft 0kts
29-Mar-20 10:59 34.218749 -118.495940 3 807ft 0kts
29-Mar-20 11:00 34.218749 -118.495940 3 807ft 0kts
29-Mar-20 11:01 34.218749 -118.495940 3 807ft 0kts
29-Mar-20 11:02 34.218749 -118.495940 3 807ft 0kts
29-Mar-20 11:03 34.218783 -118.495938 2 807ft 3kts
29-Mar-20 11:04 34.217457 -118.494706 95 807ft 26kts
29-Mar-20 11:05 34.218712 -118.492129 61 807ft 0kts
29-Mar-20 11:06 34.218712 -118.492129 61 807ft 0kts
29-Mar-20 11:07 34.216600 -118.491009 175 807ft 59kts
29-Mar-20 11:08 34.196306 -118.490437 186 1155ft 107kts
29-Mar-20 11:09 34.174552 -118.496390 189 1748ft 106kts
29-Mar-20 11:10 34.150232 -118.506095 165 2191ft 114kts
29-Mar-20 11:11 34.139327 -118.488008 119 2931ft 99kts
29-Mar-20 11:12 34.136670 -118.460811 82 3272ft 109kts
29-Mar-20 11:13 34.140694 -118.430426 84 3324ft 117kts
29-Mar-20 11:14 34.143691 -118.399790 83 3605ft 120kts
29-Mar-20 11:15 34.146641 -118.369801 83 3959ft 119kts
29-Mar-20 11:16 34.149780 -118.338066 83 4010ft 133kts
29-Mar-20 11:17 34.153030 -118.304838 83 4185ft 125kts
29-Mar-20 11:18 34.155936 -118.274883 83 4616ft 114kts
29-Mar-20 11:19 34.155487 -118.246781 120 4827ft 128kts
29-Mar-20 11:20 34.144724 -118.218598 113 4639ft 146kts
29-Mar-20 11:21 34.131648 -118.190423 117 4994ft 120kts
29-Mar-20 11:22 34.121413 -118.161764 111 5009ft 126kts
29-Mar-20 11:23 34.111846 -118.131841 111 5009ft 127kts
29-Mar-20 11:24 34.102267 -118.101803 111 5009ft 128kts
29-Mar-20 11:25 34.092674 -118.071776 111 5009ft 128kts
29-Mar-20 11:26 34.083030 -118.041614 111 5008ft 128kts
29-Mar-20 11:27 34.073356 -118.011390 111 5008ft 128kts
29-Mar-20 11:28 34.063695 -117.981239 111 5009ft 128kts
29-Mar-20 11:29 34.054091 -117.951293 111 5008ft 128kts
29-Mar-20 11:30 34.044394 -117.921085 111 5009ft 128kts
29-Mar-20 11:31 34.034731 -117.891017 111 5008ft 128kts
29-Mar-20 11:32 34.025018 -117.860819 111 5008ft 128kts
29-Mar-20 11:33 34.015404 -117.830962 111 5009ft 128kts
29-Mar-20 11:34 34.005729 -117.800950 111 5008ft 126kts
29-Mar-20 11:35 33.996218 -117.771454 111 5008ft 125kts
29-Mar-20 11:36 33.986860 -117.742410 111 5009ft 125kts
29-Mar-20 11:37 33.977462 -117.713264 111 5006ft 119kts
29-Mar-20 11:38 33.968773 -117.686330 111 5008ft 112kts
29-Mar-20 11:39 33.960350 -117.660246 111 5008ft 111kts
29-Mar-20 11:40 33.951967 -117.634356 111 5009ft 110kts
29-Mar-20 11:41 33.943656 -117.608587 111 5009ft 110kts
29-Mar-20 11:42 33.935304 -117.582644 111 5009ft 110kts
29-Mar-20 11:43 33.926883 -117.556894 111 5009ft 110kts
29-Mar-20 11:44 33.919304 -117.530809 88 5005ft 110kts
29-Mar-20 11:45 33.929259 -117.505840 61 4941ft 115kts
29-Mar-20 11:46 33.940823 -117.480547 61 4827ft 119kts
29-Mar-20 11:47 33.953009 -117.454181 60 4621ft 123kts
29-Mar-20 11:48 33.965465 -117.427242 60 4411ft 124kts
29-Mar-20 11:49 33.977682 -117.400693 60 4307ft 117kts
29-Mar-20 11:50 33.989116 -117.375899 60 4308ft 112kts
29-Mar-20 11:51 34.000224 -117.351794 60 4308ft 111kts
29-Mar-20 11:52 34.017875 -117.340793 334 4306ft 109kts
29-Mar-20 11:53 34.037233 -117.353296 332 4308ft 106kts
29-Mar-20 11:55 34.055228 -117.367024 299 4305ft 104kts
29-Mar-20 11:56 34.056414 -117.393875 270 4057ft 121kts
29-Mar-20 11:57 34.056372 -117.422329 270 3893ft 120kts
29-Mar-20 11:58 34.056341 -117.452993 270 3388ft 125kts
29-Mar-20 11:59 34.056645 -117.485067 273 2633ft 129kts
29-Mar-20 12:00 34.058493 -117.514781 272 1933ft 129kts
29-Mar-20 12:01 34.054418 -117.547416 271 1455ft 116kts
29-Mar-20 12:02 34.054562 -117.567600 271 1231ft 112kts
29-Mar-20 12:03 34.054941 -117.588230 271 948ft 29kts
29-Mar-20 12:06 34.053842 -117.593640 270 948ft 34kts
29-Mar-20 12:07 34.053837 -117.604171 269 948ft 43kts
29-Mar-20 12:08 34.051995 -117.612998 210 948ft 28kts

Navigation Log

Ident Type
Flight plan parsing failed, navigation log unavailable